Time;durP1;ratioP1;P1;durP2;ratioP2;P2;SDS_P1;SDS_P2;PMS_P1;PMS_P2;Temp;Humidity;BMP_temperature;BMP_pressure;BME280_temperature;BME280_humidity;BME280_pressure;Samples;Min_cycle;Max_cycle;Signal;HPM_P1;HPM_P2
2021/03/22 00:00:18;;;;;;;28.75;8.95;;;;;;;;;;4985749;28;20035;-68
2021/03/22 00:02:44;;;;;;;40.42;10.50;;;;;;;;;;4980642;28;20428;-68
2021/03/22 00:05:10;;;;;;;29.63;9.07;;;;;;;;;;4985475;28;20038;-68
2021/03/22 00:07:37;;;;;;;45.92;11.38;;;;;;;;;;4982994;28;20042;-68
2021/03/22 00:10:03;;;;;;;36.92;10.65;;;;;;;;;;4984416;28;20014;-68
2021/03/22 00:12:29;;;;;;;35.35;10.25;;;;;;;;;;4983233;28;20061;-68
2021/03/22 00:14:55;;;;;;;41.72;9.52;;;;;;;;;;4984421;28;20031;-68
2021/03/22 00:17:21;;;;;;;24.00;7.18;;;;;;;;;;4986456;28;20150;-68
2021/03/22 00:19:47;;;;;;;31.08;7.68;;;;;;;;;;4982290;28;20050;-68
2021/03/22 00:22:13;;;;;;;34.50;9.45;;;;;;;;;;4990172;28;20058;-68
2021/03/22 00:24:39;;;;;;;32.78;9.05;;;;;;;;;;4989559;28;20030;-68
2021/03/22 00:27:06;;;;;;;33.38;8.27;;;;;;;;;;4992252;28;20019;-68
2021/03/22 00:29:32;;;;;;;34.45;9.55;;;;;;;;;;4983310;28;20023;-69
2021/03/22 00:31:58;;;;;;;34.60;7.70;;;;;;;;;;4992234;28;20022;-69
2021/03/22 00:34:24;;;;;;;35.42;8.95;;;;;;;;;;4982734;28;20029;-68
2021/03/22 00:36:50;;;;;;;34.53;8.10;;;;;;;;;;4986106;28;20022;-68
2021/03/22 00:39:16;;;;;;;30.13;8.13;;;;;;;;;;4980208;28;20029;-68
2021/03/22 00:41:42;;;;;;;34.63;8.52;;;;;;;;;;4981087;28;20019;-68
2021/03/22 00:44:08;;;;;;;24.98;6.97;;;;;;;;;;4983151;28;20029;-68
2021/03/22 00:46:34;;;;;;;27.75;6.43;;;;;;;;;;4986615;28;20030;-68
2021/03/22 00:49:00;;;;;;;26.13;6.22;;;;;;;;;;4985270;28;20129;-68
2021/03/22 00:51:28;;;;;;;22.75;6.88;;;;;;;;;;4984098;28;20023;-68
2021/03/22 00:53:54;;;;;;;21.77;6.20;;;;;;;;;;4976878;28;20474;-68
2021/03/22 00:56:20;;;;;;;31.67;6.43;;;;;;;;;;4984154;28;20507;-68
2021/03/22 00:58:46;;;;;;;33.28;8.07;;;;;;;;;;4982321;28;20027;-68
2021/03/22 01:01:12;;;;;;;29.48;7.63;;;;;;;;;;4982475;28;20023;-69
2021/03/22 01:03:38;;;;;;;32.72;7.60;;;;;;;;;;4979467;28;20027;-68
2021/03/22 01:06:05;;;;;;;25.48;6.97;;;;;;;;;;4983123;28;20117;-68
2021/03/22 01:08:33;;;;;;;30.00;7.53;;;;;;;;;;4982886;28;20311;-68
2021/03/22 01:11:00;;;;;;;23.20;6.43;;;;;;;;;;4983793;28;20102;-68
2021/03/22 01:13:26;;;;;;;30.40;6.47;;;;;;;;;;4980885;28;20113;-68
2021/03/22 01:15:53;;;;;;;30.63;6.40;;;;;;;;;;4983645;28;20046;-68
2021/03/22 01:18:24;;;;;;;20.25;6.32;;;;;;;;;;4980624;28;20081;-68
2021/03/22 01:20:58;;;;;;;26.80;6.30;;;;;;;;;;4983424;28;20042;-68
2021/03/22 01:23:24;;;;;;;24.70;6.65;;;;;;;;;;4982460;28;20035;-68
2021/03/22 01:25:50;;;;;;;17.70;5.75;;;;;;;;;;4981719;28;20034;-68
2021/03/22 01:28:17;;;;;;;20.13;5.70;;;;;;;;;;4980333;28;20030;-68
2021/03/22 01:30:49;;;;;;;29.17;6.60;;;;;;;;;;4982773;28;20057;-68
2021/03/22 01:33:17;;;;;;;20.13;6.57;;;;;;;;;;4980045;28;20054;-69
2021/03/22 01:35:43;;;;;;;14.48;5.18;;;;;;;;;;4983041;28;20018;-69
2021/03/22 01:38:10;;;;;;;26.65;5.93;;;;;;;;;;4982662;28;20039;-69
2021/03/22 01:40:54;;;;;;;18.85;5.40;;;;;;;;;;4980987;28;20058;-68
2021/03/22 01:43:20;;;;;;;22.52;6.07;;;;;;;;;;4983623;28;20049;-68
2021/03/22 01:45:46;;;;;;;18.80;5.35;;;;;;;;;;4985189;28;20413;-68
2021/03/22 01:48:12;;;;;;;28.42;5.32;;;;;;;;;;4987564;28;20023;-69
2021/03/22 01:50:38;;;;;;;17.33;4.70;;;;;;;;;;4984342;28;20030;-68
2021/03/22 01:53:04;;;;;;;14.75;4.68;;;;;;;;;;4982935;28;20042;-68
2021/03/22 01:55:30;;;;;;;20.85;4.60;;;;;;;;;;4981874;28;20085;-68
2021/03/22 01:57:59;;;;;;;20.75;5.30;;;;;;;;;;4982073;28;20216;-68
2021/03/22 02:00:27;;;;;;;18.27;5.50;;;;;;;;;;4982338;28;20609;-69
2021/03/22 02:02:59;;;;;;;20.08;6.28;;;;;;;;;;4982466;28;20400;-69
2021/03/22 02:05:25;;;;;;;;;;;;;;;;;;4982938;28;20554;-68
2021/03/22 02:07:54;;;;;;;20.52;4.78;;;;;;;;;;4976689;28;20025;-68
2021/03/22 02:10:21;;;;;;;26.73;5.03;;;;;;;;;;4977508;28;20035;-68
2021/03/22 02:12:47;;;;;;;22.98;5.75;;;;;;;;;;4981415;28;20080;-68
2021/03/22 02:15:13;;;;;;;22.83;5.10;;;;;;;;;;4979452;28;20026;-68
2021/03/22 02:17:48;;;;;;;22.55;5.05;;;;;;;;;;4980277;28;20035;-69
2021/03/22 02:20:33;;;;;;;18.08;6.07;;;;;;;;;;4975689;28;20492;-68
2021/03/22 02:23:18;;;;;;;22.50;7.43;;;;;;;;;;4981999;28;20026;-68
2021/03/22 02:25:57;;;;;;;24.80;5.95;;;;;;;;;;4978700;28;20038;-68
2021/03/22 02:28:42;;;;;;;20.60;5.55;;;;;;;;;;4984697;28;20105;-68
2021/03/22 02:31:14;;;;;;;27.35;6.57;;;;;;;;;;4977402;28;20077;-68
2021/03/22 02:33:56;;;;;;;24.50;5.90;;;;;;;;;;4979310;28;20062;-68
2021/03/22 02:36:28;;;;;;;23.60;6.75;;;;;;;;;;4980086;28;20037;-68
2021/03/22 02:38:56;;;;;;;22.88;6.72;;;;;;;;;;4985398;28;20034;-68
2021/03/22 02:41:26;;;;;;;33.28;8.43;;;;;;;;;;4981229;28;20045;-69
2021/03/22 02:44:02;;;;;;;24.13;7.43;;;;;;;;;;4980670;28;20512;-68
2021/03/22 02:46:28;;;;;;;25.30;6.78;;;;;;;;;;4982278;28;20089;-68
2021/03/22 02:48:55;;;;;;;41.55;8.60;;;;;;;;;;4981982;28;20448;-68
2021/03/22 02:51:41;;;;;;;30.83;7.75;;;;;;;;;;4979071;28;20018;-68
2021/03/22 02:54:07;;;;;;;22.60;7.00;;;;;;;;;;4979974;28;20121;-69
2021/03/22 02:56:56;;;;;;;24.00;8.05;;;;;;;;;;4985492;28;20528;-68
2021/03/22 02:59:33;;;;;;;30.13;6.95;;;;;;;;;;4978386;28;20034;-69
2021/03/22 03:02:01;;;;;;;30.65;7.15;;;;;;;;;;4985579;28;20562;-68
2021/03/22 03:04:29;;;;;;;30.42;7.40;;;;;;;;;;4984792;28;20031;-68
2021/03/22 03:07:00;;;;;;;35.75;7.45;;;;;;;;;;4985756;28;20458;-68
2021/03/22 03:09:30;;;;;;;27.05;7.07;;;;;;;;;;4982187;28;20101;-68
2021/03/22 03:11:57;;;;;;;31.25;6.60;;;;;;;;;;4982242;28;20044;-68
2021/03/22 03:14:23;;;;;;;28.00;6.90;;;;;;;;;;4985605;28;20026;-69
2021/03/22 03:16:49;;;;;;;31.00;8.52;;;;;;;;;;4985307;28;20030;-68
2021/03/22 03:19:15;;;;;;;28.98;7.78;;;;;;;;;;4980695;28;20026;-68
2021/03/22 03:21:42;;;;;;;38.58;7.18;;;;;;;;;;4980969;28;20029;-68
2021/03/22 03:24:09;;;;;;;39.63;9.00;;;;;;;;;;4981034;28;20054;-68
2021/03/22 03:26:35;;;;;;;26.65;7.05;;;;;;;;;;4983912;28;20117;-68
2021/03/22 03:29:01;;;;;;;46.58;8.70;;;;;;;;;;4979869;28;20034;-68
2021/03/22 03:31:28;;;;;;;31.27;6.93;;;;;;;;;;4982306;28;20045;-69
2021/03/22 03:33:54;;;;;;;32.90;7.13;;;;;;;;;;4983186;28;20569;-68
2021/03/22 03:36:20;;;;;;;23.95;6.53;;;;;;;;;;4982746;28;20118;-69
2021/03/22 03:38:46;;;;;;;30.90;6.30;;;;;;;;;;4982788;28;20121;-68
2021/03/22 03:41:12;;;;;;;24.05;5.53;;;;;;;;;;4982104;28;20026;-68
2021/03/22 03:43:38;;;;;;;29.02;7.97;;;;;;;;;;4981521;28;20665;-68
2021/03/22 03:46:04;;;;;;;28.90;5.28;;;;;;;;;;4981830;28;20022;-69
2021/03/22 03:48:30;;;;;;;32.65;6.13;;;;;;;;;;4983694;28;20167;-68
2021/03/22 03:50:57;;;;;;;27.55;6.30;;;;;;;;;;4981703;28;20060;-68
2021/03/22 03:53:24;;;;;;;26.65;5.82;;;;;;;;;;4984334;28;20043;-68
2021/03/22 03:55:50;;;;;;;22.63;6.25;;;;;;;;;;4986409;28;20030;-69
2021/03/22 03:58:17;;;;;;;29.00;6.68;;;;;;;;;;4983159;28;20030;-69
2021/03/22 04:00:44;;;;;;;26.83;6.00;;;;;;;;;;4985179;28;20030;-68
2021/03/22 04:03:33;;;;;;;24.85;5.85;;;;;;;;;;4982416;28;20520;-68
2021/03/22 04:05:59;;;;;;;22.70;5.20;;;;;;;;;;4977091;28;20520;-68
2021/03/22 04:08:26;;;;;;;20.23;5.10;;;;;;;;;;4979880;28;20023;-68
2021/03/22 04:10:53;;;;;;;22.05;4.90;;;;;;;;;;4982460;28;20046;-68
2021/03/22 04:13:19;;;;;;;23.38;5.28;;;;;;;;;;4983258;28;20168;-68
2021/03/22 04:15:45;;;;;;;30.67;6.93;;;;;;;;;;4983366;28;20089;-68
2021/03/22 04:18:12;;;;;;;28.40;5.72;;;;;;;;;;4979386;28;20117;-69
2021/03/22 04:20:38;;;;;;;28.33;5.78;;;;;;;;;;4986724;28;20037;-68
2021/03/22 04:23:04;;;;;;;23.98;5.40;;;;;;;;;;4982666;28;20030;-68
2021/03/22 04:25:30;;;;;;;23.52;5.40;;;;;;;;;;4982980;28;20027;-68
2021/03/22 04:27:56;;;;;;;23.77;5.45;;;;;;;;;;4981278;28;20412;-68
2021/03/22 04:30:22;;;;;;;21.63;5.95;;;;;;;;;;4979647;28;20041;-68
2021/03/22 04:32:49;;;;;;;25.02;5.18;;;;;;;;;;4984010;28;20023;-68
2021/03/22 04:35:15;;;;;;;21.17;5.55;;;;;;;;;;4981157;28;20030;-68
2021/03/22 04:37:41;;;;;;;19.40;4.95;;;;;;;;;;4985157;28;20037;-68
2021/03/22 04:40:08;;;;;;;22.02;5.80;;;;;;;;;;4982803;28;20083;-68
2021/03/22 04:42:34;;;;;;;23.25;6.40;;;;;;;;;;4982354;28;20117;-69
2021/03/22 04:45:00;;;;;;;25.55;6.57;;;;;;;;;;4982368;28;20037;-68
2021/03/22 04:47:26;;;;;;;26.02;5.85;;;;;;;;;;4980200;28;20023;-68
2021/03/22 04:49:52;;;;;;;29.13;7.18;;;;;;;;;;4980296;28;20521;-69
2021/03/22 04:52:19;;;;;;;19.05;5.43;;;;;;;;;;4983474;28;20527;-68
2021/03/22 04:54:45;;;;;;;32.22;6.15;;;;;;;;;;4982082;28;20516;-68
2021/03/22 04:57:22;;;;;;;25.88;6.63;;;;;;;;;;4985044;28;20019;-68
2021/03/22 04:59:49;;;;;;;31.70;6.20;;;;;;;;;;4980117;28;20049;-68
2021/03/22 05:02:15;;;;;;;20.20;6.28;;;;;;;;;;4982700;28;20022;-68
2021/03/22 05:04:41;;;;;;;21.30;6.15;;;;;;;;;;4979239;28;20508;-69
2021/03/22 05:07:07;;;;;;;24.83;5.50;;;;;;;;;;4981788;28;20022;-68
2021/03/22 05:09:33;;;;;;;31.67;7.90;;;;;;;;;;4975067;28;20121;-68
2021/03/22 05:11:59;;;;;;;23.05;5.72;;;;;;;;;;4981420;28;20063;-68
2021/03/22 05:14:25;;;;;;;20.83;5.90;;;;;;;;;;4983502;28;20077;-68
2021/03/22 05:16:51;;;;;;;31.95;7.40;;;;;;;;;;4981784;28;20034;-68
2021/03/22 05:19:17;;;;;;;26.13;6.30;;;;;;;;;;4981121;28;20026;-68
2021/03/22 05:21:43;;;;;;;23.27;6.38;;;;;;;;;;4983714;28;20027;-68
2021/03/22 05:24:09;;;;;;;24.98;6.50;;;;;;;;;;4982769;28;20034;-68
2021/03/22 05:26:35;;;;;;;27.55;6.65;;;;;;;;;;4983267;28;20026;-68
2021/03/22 05:29:01;;;;;;;23.00;6.25;;;;;;;;;;4986664;28;20026;-68
2021/03/22 05:31:27;;;;;;;24.42;5.75;;;;;;;;;;4981238;28;20058;-68
2021/03/22 05:33:54;;;;;;;28.20;6.15;;;;;;;;;;4983128;28;20069;-68
2021/03/22 05:36:20;;;;;;;22.60;5.00;;;;;;;;;;4980813;28;20085;-69
2021/03/22 05:38:46;;;;;;;34.92;6.80;;;;;;;;;;4981952;28;20041;-68
2021/03/22 05:41:18;;;;;;;26.15;6.78;;;;;;;;;;4984467;28;20037;-68
2021/03/22 05:44:07;;;;;;;28.52;6.35;;;;;;;;;;4986360;28;20034;-68
2021/03/22 05:46:48;;;;;;;24.10;6.15;;;;;;;;;;4976857;28;20125;-68
2021/03/22 05:49:39;;;;;;;31.70;6.32;;;;;;;;;;4978780;28;20096;-68
2021/03/22 05:52:24;;;;;;;24.55;6.38;;;;;;;;;;4977284;28;20113;-68
2021/03/22 05:55:08;;;;;;;22.90;5.57;;;;;;;;;;4977555;28;20034;-68
2021/03/22 05:57:40;;;;;;;21.02;4.47;;;;;;;;;;4981604;28;20548;-69
2021/03/22 06:00:18;;;;;;;29.17;6.68;;;;;;;;;;4978413;28;20018;-70
2021/03/22 06:02:47;;;;;;;24.02;6.95;;;;;;;;;;4978985;28;20084;-68
2021/03/22 06:05:32;;;;;;;31.13;6.03;;;;;;;;;;4979232;28;20038;-69
2021/03/22 06:08:02;;;;;;;25.42;5.85;;;;;;;;;;4979661;28;20543;-69
2021/03/22 06:10:39;;;;;;;21.80;5.30;;;;;;;;;;4977628;28;20029;-68
2021/03/22 06:13:06;;;;;;;23.65;6.50;;;;;;;;;;4977685;28;20065;-68
2021/03/22 06:15:32;;;;;;;26.45;5.80;;;;;;;;;;4979440;28;20512;-69
2021/03/22 06:17:58;;;;;;;22.00;5.90;;;;;;;;;;4979389;28;20031;-68
2021/03/22 06:20:27;;;;;;;25.42;5.93;;;;;;;;;;4979896;28;20037;-68
2021/03/22 06:23:04;;;;;;;26.95;6.47;;;;;;;;;;4985048;28;20069;-68
2021/03/22 06:25:31;;;;;;;19.48;5.75;;;;;;;;;;4985236;28;20516;-68
2021/03/22 06:28:02;;;;;;;21.77;5.22;;;;;;;;;;4989093;28;20025;-68
2021/03/22 06:30:28;;;;;;;26.27;6.23;;;;;;;;;;4987322;28;20011;-68
2021/03/22 06:32:56;;;;;;;28.80;6.72;;;;;;;;;;4978417;28;20021;-68
2021/03/22 06:35:24;;;;;;;21.40;6.65;;;;;;;;;;4986748;28;20041;-68
2021/03/22 06:37:50;;;;;;;28.20;7.60;;;;;;;;;;4989098;28;20112;-68
2021/03/22 06:40:16;;;;;;;32.15;6.63;;;;;;;;;;4990826;28;20026;-68
2021/03/22 06:42:43;;;;;;;31.60;7.38;;;;;;;;;;4989528;28;20185;-68
2021/03/22 06:45:28;;;;;;;19.20;7.28;;;;;;;;;;4985869;28;20113;-69
2021/03/22 06:48:12;;;;;;;21.45;6.65;;;;;;;;;;4995230;28;20033;-68
2021/03/22 06:50:38;;;;;;;36.63;6.90;;;;;;;;;;4989704;28;20023;-68
2021/03/22 06:53:04;;;;;;;32.42;6.43;;;;;;;;;;4982518;28;20042;-68
2021/03/22 06:55:30;;;;;;;28.58;7.32;;;;;;;;;;4991735;28;20022;-68
2021/03/22 06:57:56;;;;;;;30.75;6.68;;;;;;;;;;4982024;28;20049;-68
2021/03/22 07:00:24;;;;;;;35.95;8.43;;;;;;;;;;4981075;28;20034;-68
2021/03/22 07:02:59;;;;;;;33.65;7.40;;;;;;;;;;4988488;28;20113;-68
2021/03/22 07:05:28;;;;;;;29.73;7.15;;;;;;;;;;4983338;28;20770;-68
2021/03/22 07:07:55;;;;;;;29.45;6.90;;;;;;;;;;4985549;28;20503;-69
2021/03/22 07:10:21;;;;;;;28.02;7.53;;;;;;;;;;4984651;28;20057;-69
2021/03/22 07:12:48;;;;;;;31.33;7.95;;;;;;;;;;4984062;28;20045;-68
2021/03/22 07:15:14;;;;;;;33.20;7.45;;;;;;;;;;4990747;28;20022;-68
2021/03/22 07:17:40;;;;;;;24.77;8.00;;;;;;;;;;4986458;28;20022;-68
2021/03/22 07:20:16;;;;;;;34.47;6.78;;;;;;;;;;4981320;28;20041;-68
2021/03/22 07:22:43;;;;;;;36.08;8.65;;;;;;;;;;4990920;28;20030;-68
2021/03/22 07:25:29;;;;;;;35.55;7.40;;;;;;;;;;4981358;28;20031;-68
2021/03/22 07:27:58;;;;;;;33.47;7.45;;;;;;;;;;4988985;28;20035;-68
2021/03/22 07:30:24;;;;;;;36.25;8.25;;;;;;;;;;4986965;28;20097;-68
2021/03/22 07:32:50;;;;;;;31.15;8.10;;;;;;;;;;4993159;28;20030;-68
2021/03/22 07:35:35;;;;;;;28.17;8.05;;;;;;;;;;4984458;28;20504;-68
2021/03/22 07:38:21;;;;;;;27.48;7.18;;;;;;;;;;4983953;28;20092;-68
2021/03/22 07:40:50;;;;;;;26.83;8.52;;;;;;;;;;4983792;28;20027;-68
2021/03/22 07:43:31;;;;;;;22.25;7.55;;;;;;;;;;4986017;28;20046;-68
2021/03/22 07:46:16;;;;;;;31.70;7.20;;;;;;;;;;4987602;28;20117;-68
2021/03/22 07:48:50;;;;;;;27.08;7.25;;;;;;;;;;4983947;28;20210;-68
2021/03/22 07:51:31;;;;;;;31.27;7.25;;;;;;;;;;4988806;28;20080;-68
2021/03/22 07:54:02;;;;;;;24.27;7.22;;;;;;;;;;4990609;28;20105;-68
2021/03/22 07:56:43;;;;;;;27.27;7.63;;;;;;;;;;4982566;28;20034;-69
2021/03/22 07:59:21;;;;;;;30.98;6.60;;;;;;;;;;4986701;28;20035;-68
2021/03/22 08:02:06;;;;;;;26.52;7.47;;;;;;;;;;4982929;28;20038;-68
2021/03/22 08:04:40;;;;;;;29.85;7.28;;;;;;;;;;4988764;28;20034;-68
2021/03/22 08:07:13;;;;;;;27.85;7.65;;;;;;;;;;4987274;28;20381;-68
2021/03/22 08:09:43;;;;;;;29.73;7.03;;;;;;;;;;4983085;28;20079;-68
2021/03/22 08:12:25;;;;;;;21.98;8.00;;;;;;;;;;4981933;28;20019;-68
2021/03/22 08:14:51;;;;;;;;;;;;;;;;;;4978953;28;20030;-68
2021/03/22 08:17:17;;;;;;;24.98;7.07;;;;;;;;;;4982991;28;19916;-68
2021/03/22 08:20:02;;;;;;;21.48;6.70;;;;;;;;;;4984865;28;20030;-68
2021/03/22 08:22:38;;;;;;;26.20;6.95;;;;;;;;;;4999077;28;20373;-68
2021/03/22 08:25:04;;;;;;;24.13;6.97;;;;;;;;;;4983695;28;20030;-68
2021/03/22 08:27:32;;;;;;;24.10;6.20;;;;;;;;;;4982822;28;20034;-68
2021/03/22 08:29:58;;;;;;;33.20;7.82;;;;;;;;;;4975936;28;20085;-68
2021/03/22 08:32:33;;;;;;;33.08;8.48;;;;;;;;;;4980309;28;20030;-68
2021/03/22 08:35:03;;;;;;;29.60;8.38;;;;;;;;;;4993417;28;21476;-68
2021/03/22 08:37:38;;;;;;;25.52;6.65;;;;;;;;;;4985297;28;20022;-68
2021/03/22 08:40:07;;;;;;;19.60;7.40;;;;;;;;;;4982773;28;20030;-68
2021/03/22 08:42:45;;;;;;;21.80;6.38;;;;;;;;;;4986304;28;20022;-68
2021/03/22 08:45:30;;;;;;;26.65;7.30;;;;;;;;;;4987430;28;20164;-68
2021/03/22 08:48:00;;;;;;;25.23;6.65;;;;;;;;;;4982437;28;20049;-68
2021/03/22 08:50:27;;;;;;;31.33;6.32;;;;;;;;;;4977516;28;20028;-68
2021/03/22 08:52:56;;;;;;;21.90;6.35;;;;;;;;;;4985184;28;20527;-69
2021/03/22 08:55:23;;;;;;;28.23;6.72;;;;;;;;;;4985588;28;20100;-69
2021/03/22 08:58:09;;;;;;;34.50;6.85;;;;;;;;;;4989154;28;20049;-68
2021/03/22 09:00:40;;;;;;;18.65;6.25;;;;;;;;;;4982392;28;20034;-68
2021/03/22 09:03:16;;;;;;;24.35;6.88;;;;;;;;;;4987280;28;20522;-69
2021/03/22 09:05:43;;;;;;;32.53;9.63;;;;;;;;;;4977578;28;20105;-69
2021/03/22 09:08:16;;;;;;;25.77;5.85;;;;;;;;;;4979249;28;20026;-69
2021/03/22 09:10:43;;;;;;;27.83;7.68;;;;;;;;;;4983594;28;20120;-69
2021/03/22 09:13:20;;;;;;;35.30;6.85;;;;;;;;;;4986609;28;20118;-69
2021/03/22 09:16:05;;;;;;;30.48;5.75;;;;;;;;;;4987657;28;20129;-68
2021/03/22 09:18:31;;;;;;;20.05;6.75;;;;;;;;;;4983650;28;20038;-69
2021/03/22 09:21:05;;;;;;;34.10;6.70;;;;;;;;;;4983575;28;20026;-70
2021/03/22 09:23:31;;;;;;;23.58;5.82;;;;;;;;;;4984325;28;20126;-68
2021/03/22 09:26:02;;;;;;;26.02;6.88;;;;;;;;;;4980451;28;20058;-68
2021/03/22 09:28:28;;;;;;;25.52;5.28;;;;;;;;;;4993905;28;20058;-69
2021/03/22 09:31:12;;;;;;;23.65;6.72;;;;;;;;;;4977416;28;20530;-69
2021/03/22 09:33:57;;;;;;;16.83;5.78;;;;;;;;;;4990280;28;20110;-69
2021/03/22 09:36:40;;;;;;;21.83;5.32;;;;;;;;;;4988960;28;20030;-68
2021/03/22 09:39:18;;;;;;;22.00;6.15;;;;;;;;;;4978964;28;20508;-68
2021/03/22 09:41:53;;;;;;;23.95;7.03;;;;;;;;;;4981586;28;20038;-68
2021/03/22 09:44:24;;;;;;;20.67;5.60;;;;;;;;;;4981601;28;20026;-68
2021/03/22 09:47:02;;;;;;;26.58;5.57;;;;;;;;;;4977270;28;20062;-69
2021/03/22 09:49:28;;;;;;;19.27;5.15;;;;;;;;;;4985620;28;20522;-68
2021/03/22 09:52:01;;;;;;;20.65;6.20;;;;;;;;;;4982532;28;20484;-69
2021/03/22 09:54:34;;;;;;;22.73;5.25;;;;;;;;;;4983010;28;20042;-69
2021/03/22 09:57:13;;;;;;;22.27;6.40;;;;;;;;;;4982954;28;20034;-68
2021/03/22 09:59:59;;;;;;;17.33;6.03;;;;;;;;;;4979892;28;20041;-68
2021/03/22 10:02:30;;;;;;;24.48;5.88;;;;;;;;;;4979020;28;20476;-68
2021/03/22 10:04:56;;;;;;;;;;;;;;;;;;4984957;28;20027;-69
2021/03/22 10:07:22;;;;;;;23.90;6.85;;;;;;;;;;4973496;28;20458;-68
2021/03/22 10:09:52;;;;;;;17.55;5.28;;;;;;;;;;4981936;28;20038;-68
2021/03/22 10:12:21;;;;;;;21.88;6.10;;;;;;;;;;4983539;28;20027;-70
2021/03/22 10:14:58;;;;;;;19.15;5.45;;;;;;;;;;4985798;28;20023;-68
2021/03/22 10:17:29;;;;;;;17.30;5.43;;;;;;;;;;4985060;28;20038;-69
2021/03/22 10:20:03;;;;;;;23.17;5.63;;;;;;;;;;4985666;28;20110;-68
2021/03/22 10:22:29;;;;;;;21.42;5.97;;;;;;;;;;4981156;28;20084;-68
2021/03/22 10:25:01;;;;;;;23.70;5.53;;;;;;;;;;4983197;28;20031;-68
2021/03/22 10:27:32;;;;;;;21.27;5.13;;;;;;;;;;4986183;28;20105;-68
2021/03/22 10:30:07;;;;;;;22.83;5.18;;;;;;;;;;4975983;28;20022;-68
2021/03/22 10:32:33;;;;;;;20.02;5.32;;;;;;;;;;4982092;28;20018;-68
2021/03/22 10:35:19;;;;;;;21.17;5.65;;;;;;;;;;4985470;28;20466;-69
2021/03/22 10:37:50;;;;;;;19.27;5.43;;;;;;;;;;4988904;28;20113;-68
2021/03/22 10:40:36;;;;;;;20.63;5.77;;;;;;;;;;4983369;28;20034;-68
2021/03/22 10:43:04;;;;;;;19.45;4.93;;;;;;;;;;4987523;28;20326;-69
2021/03/22 10:45:33;;;;;;;26.08;5.30;;;;;;;;;;4984349;28;20116;-68
2021/03/22 10:48:00;;;;;;;22.17;5.07;;;;;;;;;;4983119;28;20285;-68
2021/03/22 10:50:28;;;;;;;22.83;5.30;;;;;;;;;;4982009;28;20030;-69
2021/03/22 10:53:06;;;;;;;19.77;5.68;;;;;;;;;;4989555;28;20220;-68
2021/03/22 10:55:33;;;;;;;23.13;5.80;;;;;;;;;;4984990;28;20046;-68
2021/03/22 10:58:00;;;;;;;20.92;5.93;;;;;;;;;;4981805;28;20282;-68
2021/03/22 11:00:35;;;;;;;22.38;4.95;;;;;;;;;;4980204;28;20042;-68
2021/03/22 11:03:04;;;;;;;16.73;4.40;;;;;;;;;;4983076;28;20050;-68
2021/03/22 11:05:32;;;;;;;14.35;6.10;;;;;;;;;;4978002;28;20034;-69
2021/03/22 11:08:04;;;;;;;21.73;5.47;;;;;;;;;;4984746;28;20026;-68
2021/03/22 11:10:31;;;;;;;20.55;6.13;;;;;;;;;;4979169;28;20074;-69
2021/03/22 11:12:57;;;;;;;26.08;5.95;;;;;;;;;;4988722;28;20018;-68
2021/03/22 11:15:29;;;;;;;22.85;5.65;;;;;;;;;;4986505;28;20038;-68
2021/03/22 11:17:55;;;;;;;22.55;5.32;;;;;;;;;;4986497;28;20033;-69
2021/03/22 11:20:22;;;;;;;15.65;5.72;;;;;;;;;;4983637;28;20525;-68
2021/03/22 11:22:49;;;;;;;22.30;4.95;;;;;;;;;;4989951;28;20473;-68
2021/03/22 11:25:30;;;;;;;20.70;6.13;;;;;;;;;;4982939;28;20059;-68
2021/03/22 11:27:58;;;;;;;19.17;5.47;;;;;;;;;;4990021;28;20122;-68
2021/03/22 11:30:33;;;;;;;14.63;4.72;;;;;;;;;;4980766;28;20058;-68
2021/03/22 11:33:00;;;;;;;19.35;5.35;;;;;;;;;;4992775;28;20414;-69
2021/03/22 11:35:29;;;;;;;18.40;5.30;;;;;;;;;;4987858;28;20041;-69
2021/03/22 11:37:57;;;;;;;17.30;5.53;;;;;;;;;;4986231;28;20635;-69
2021/03/22 11:40:26;;;;;;;22.95;6.05;;;;;;;;;;4982505;28;20030;-69
2021/03/22 11:43:01;;;;;;;20.63;5.78;;;;;;;;;;4988520;28;20030;-68
2021/03/22 11:45:30;;;;;;;17.52;4.30;;;;;;;;;;4992186;28;20085;-69
2021/03/22 11:47:56;;;;;;;20.92;5.38;;;;;;;;;;4991688;28;20056;-68
2021/03/22 11:50:22;;;;;;;17.65;4.82;;;;;;;;;;4979243;28;20027;-69
2021/03/22 11:52:59;;;;;;;15.35;4.15;;;;;;;;;;4987413;28;20046;-69
2021/03/22 11:55:38;;;;;;;20.17;5.45;;;;;;;;;;4983490;28;20058;-69
2021/03/22 11:58:04;;;;;;;23.38;6.68;;;;;;;;;;4999121;28;20033;-68
2021/03/22 12:00:34;;;;;;;15.40;4.53;;;;;;;;;;4976850;28;20034;-69
2021/03/22 12:03:02;;;;;;;13.52;4.88;;;;;;;;;;4990264;28;20029;-68
2021/03/22 12:05:28;;;;;;;20.95;4.88;;;;;;;;;;4983788;28;20062;-68
2021/03/22 12:07:54;;;;;;;18.30;4.78;;;;;;;;;;4987423;28;20056;-69
2021/03/22 12:10:30;;;;;;;18.42;5.18;;;;;;;;;;4986406;28;20034;-68
2021/03/22 12:12:57;;;;;;;18.27;4.40;;;;;;;;;;4989121;28;20054;-68
2021/03/22 12:15:24;;;;;;;14.23;4.10;;;;;;;;;;4984059;28;20025;-68
2021/03/22 12:18:10;;;;;;;23.55;4.30;;;;;;;;;;4980996;28;20042;-68
2021/03/22 12:20:37;;;;;;;19.55;5.80;;;;;;;;;;4983840;28;20077;-69
2021/03/22 12:23:03;;;;;;;17.70;4.82;;;;;;;;;;4979970;28;20089;-68
2021/03/22 12:25:36;;;;;;;19.20;5.05;;;;;;;;;;4984031;28;20070;-69
2021/03/22 12:28:02;;;;;;;20.25;5.90;;;;;;;;;;4984558;28;20058;-68
2021/03/22 12:30:29;;;;;;;19.80;4.90;;;;;;;;;;4985878;28;20090;-68
2021/03/22 12:32:55;;;;;;;16.67;4.85;;;;;;;;;;4984384;28;20026;-68
2021/03/22 12:35:26;;;;;;;17.90;5.55;;;;;;;;;;4984664;28;20042;-68
2021/03/22 12:37:52;;;;;;;18.20;4.00;;;;;;;;;;4990254;28;20378;-68
2021/03/22 12:40:19;;;;;;;20.50;4.85;;;;;;;;;;4982997;28;20098;-69
2021/03/22 12:42:45;;;;;;;15.65;4.78;;;;;;;;;;4988267;28;20053;-68
2021/03/22 12:45:25;;;;;;;16.55;4.78;;;;;;;;;;4976461;28;20481;-68
2021/03/22 12:47:52;;;;;;;20.85;5.70;;;;;;;;;;4988730;28;20022;-68
2021/03/22 12:50:21;;;;;;;19.08;4.93;;;;;;;;;;4982934;28;20018;-68
2021/03/22 12:52:51;;;;;;;16.48;4.28;;;;;;;;;;4990106;28;20030;-68
2021/03/22 12:55:17;;;;;;;22.77;5.57;;;;;;;;;;4989830;28;20022;-68
2021/03/22 12:57:43;;;;;;;19.27;4.72;;;;;;;;;;4986352;28;20117;-68
2021/03/22 13:00:11;;;;;;;19.45;4.35;;;;;;;;;;4988724;28;20118;-68
2021/03/22 13:02:37;;;;;;;15.05;4.13;;;;;;;;;;4991650;28;20031;-67
2021/03/22 13:05:06;;;;;;;15.32;3.72;;;;;;;;;;4989244;28;20030;-68
2021/03/22 13:07:32;;;;;;;14.00;4.78;;;;;;;;;;4990754;28;20034;-68
2021/03/22 13:09:58;;;;;;;18.20;4.72;;;;;;;;;;4981007;28;20460;-68
2021/03/22 13:12:26;;;;;;;20.52;3.55;;;;;;;;;;4985904;28;20031;-68
2021/03/22 13:14:54;;;;;;;20.60;4.78;;;;;;;;;;4984896;28;20034;-67
2021/03/22 13:17:22;;;;;;;14.45;3.67;;;;;;;;;;4981114;28;20030;-68
2021/03/22 13:19:48;;;;;;;17.60;4.15;;;;;;;;;;4993632;28;20029;-68
2021/03/22 13:22:20;;;;;;;13.95;4.30;;;;;;;;;;4985902;28;20038;-68
2021/03/22 13:24:46;;;;;;;13.68;3.40;;;;;;;;;;4985990;28;20023;-68
2021/03/22 13:27:16;;;;;;;15.80;3.72;;;;;;;;;;4985097;28;20046;-68
2021/03/22 13:29:42;;;;;;;21.30;4.07;;;;;;;;;;4979471;28;20038;-67
2021/03/22 13:32:09;;;;;;;12.73;4.10;;;;;;;;;;4990558;28;20030;-68
2021/03/22 13:34:35;;;;;;;16.60;3.45;;;;;;;;;;4986139;28;20038;-68
2021/03/22 13:37:01;;;;;;;15.40;3.80;;;;;;;;;;4982040;28;20042;-69
2021/03/22 13:39:27;;;;;;;16.50;4.18;;;;;;;;;;4982600;28;20084;-68
2021/03/22 13:41:55;;;;;;;21.65;3.65;;;;;;;;;;4986393;28;20026;-68
2021/03/22 13:44:22;;;;;;;11.38;3.90;;;;;;;;;;4981382;28;20038;-68
2021/03/22 13:46:48;;;;;;;22.42;4.45;;;;;;;;;;4990710;28;20045;-68
2021/03/22 13:49:14;;;;;;;12.85;3.63;;;;;;;;;;4976976;28;20022;-69
2021/03/22 13:51:41;;;;;;;23.80;4.07;;;;;;;;;;4985405;28;20205;-68
2021/03/22 13:54:07;;;;;;;18.33;4.63;;;;;;;;;;4983302;28;20053;-68
2021/03/22 13:56:33;;;;;;;27.40;6.65;;;;;;;;;;4980128;28;20018;-68
2021/03/22 13:59:00;;;;;;;19.17;4.93;;;;;;;;;;4981087;28;20037;-68
2021/03/22 14:01:26;;;;;;;19.13;4.80;;;;;;;;;;4985651;28;20041;-69
2021/03/22 14:03:52;;;;;;;15.15;4.72;;;;;;;;;;4981964;28;20031;-67
2021/03/22 14:06:18;;;;;;;19.17;4.28;;;;;;;;;;4986179;28;20072;-67
2021/03/22 14:08:44;;;;;;;24.00;4.93;;;;;;;;;;4978184;28;20035;-68
2021/03/22 14:11:11;;;;;;;17.48;4.40;;;;;;;;;;4983674;28;20062;-69
2021/03/22 14:13:37;;;;;;;17.38;4.30;;;;;;;;;;4980885;28;20031;-68
2021/03/22 14:16:03;;;;;;;27.35;4.88;;;;;;;;;;4987186;28;20515;-68
2021/03/22 14:18:30;;;;;;;13.02;3.95;;;;;;;;;;4984413;28;20031;-68
2021/03/22 14:20:57;;;;;;;21.40;5.00;;;;;;;;;;4984540;28;20141;-68
2021/03/22 14:23:25;;;;;;;20.85;5.10;;;;;;;;;;4988878;28;20023;-67
2021/03/22 14:25:51;;;;;;;21.48;5.13;;;;;;;;;;4987114;28;20042;-68
2021/03/22 14:28:19;;;;;;;16.77;4.80;;;;;;;;;;4981733;28;20400;-69
2021/03/22 14:30:46;;;;;;;25.67;6.47;;;;;;;;;;4981530;28;20027;-69
2021/03/22 14:33:13;;;;;;;22.75;5.32;;;;;;;;;;4983039;28;20098;-68
2021/03/22 14:35:39;;;;;;;16.42;4.57;;;;;;;;;;4989986;28;20037;-68
2021/03/22 14:38:06;;;;;;;14.75;4.50;;;;;;;;;;4985644;28;20031;-68
2021/03/22 14:40:32;;;;;;;14.55;3.88;;;;;;;;;;4985754;28;20743;-68
2021/03/22 14:42:58;;;;;;;21.38;3.85;;;;;;;;;;4985498;28;20026;-68
2021/03/22 14:45:25;;;;;;;20.80;4.03;;;;;;;;;;4985630;28;20031;-68